sensor_id;sensor_type;location;lat;lon;timestamp;P1;durP1;ratioP1;P2;durP2;ratioP2
14903;SDS011;7543;53.148;8.234;2024-02-21T00:00:56;25.63;;;9.30;;
14903;SDS011;7543;53.148;8.234;2024-02-21T00:03:24;20.10;;;9.93;;
14903;SDS011;7543;53.148;8.234;2024-02-21T00:05:52;22.90;;;10.00;;
14903;SDS011;7543;53.148;8.234;2024-02-21T00:08:21;19.60;;;10.80;;
14903;SDS011;7543;53.148;8.234;2024-02-21T00:10:49;21.50;;;10.27;;
14903;SDS011;7543;53.148;8.234;2024-02-21T00:13:18;21.33;;;11.37;;
14903;SDS011;7543;53.148;8.234;2024-02-21T00:15:47;21.57;;;11.17;;
14903;SDS011;7543;53.148;8.234;2024-02-21T00:18:15;21.03;;;11.37;;
14903;SDS011;7543;53.148;8.234;2024-02-21T00:20:43;22.90;;;11.43;;
14903;SDS011;7543;53.148;8.234;2024-02-21T00:23:12;23.03;;;12.17;;
14903;SDS011;7543;53.148;8.234;2024-02-21T00:25:40;21.73;;;11.50;;
14903;SDS011;7543;53.148;8.234;2024-02-21T00:28:08;21.33;;;10.93;;
14903;SDS011;7543;53.148;8.234;2024-02-21T00:30:38;22.77;;;11.20;;
14903;SDS011;7543;53.148;8.234;2024-02-21T00:33:06;24.90;;;11.47;;
14903;SDS011;7543;53.148;8.234;2024-02-21T00:35:35;24.93;;;10.67;;
14903;SDS011;7543;53.148;8.234;2024-02-21T00:38:03;23.00;;;11.43;;
14903;SDS011;7543;53.148;8.234;2024-02-21T00:40:31;22.20;;;11.40;;
14903;SDS011;7543;53.148;8.234;2024-02-21T00:42:59;24.10;;;10.97;;
14903;SDS011;7543;53.148;8.234;2024-02-21T00:45:28;20.13;;;10.67;;
14903;SDS011;7543;53.148;8.234;2024-02-21T00:47:57;18.80;;;9.90;;
14903;SDS011;7543;53.148;8.234;2024-02-21T00:50:26;22.27;;;10.60;;
14903;SDS011;7543;53.148;8.234;2024-02-21T00:52:54;16.33;;;9.77;;
14903;SDS011;7543;53.148;8.234;2024-02-21T00:55:22;26.03;;;10.43;;
14903;SDS011;7543;53.148;8.234;2024-02-21T00:57:51;22.43;;;11.30;;
14903;SDS011;7543;53.148;8.234;2024-02-21T01:00:19;19.90;;;10.23;;
14903;SDS011;7543;53.148;8.234;2024-02-21T01:02:47;18.87;;;9.60;;
14903;SDS011;7543;53.148;8.234;2024-02-21T01:05:17;17.30;;;9.87;;
14903;SDS011;7543;53.148;8.234;2024-02-21T01:07:46;17.17;;;9.10;;
14903;SDS011;7543;53.148;8.234;2024-02-21T01:10:14;19.27;;;9.17;;
14903;SDS011;7543;53.148;8.234;2024-02-21T01:12:43;24.00;;;10.10;;
14903;SDS011;7543;53.148;8.234;2024-02-21T01:15:11;25.30;;;9.33;;
14903;SDS011;7543;53.148;8.234;2024-02-21T01:17:40;16.17;;;8.93;;
14903;SDS011;7543;53.148;8.234;2024-02-21T01:20:09;21.27;;;9.63;;
14903;SDS011;7543;53.148;8.234;2024-02-21T01:22:39;18.83;;;9.50;;
14903;SDS011;7543;53.148;8.234;2024-02-21T01:25:07;17.67;;;8.77;;
14903;SDS011;7543;53.148;8.234;2024-02-21T01:27:36;20.50;;;8.63;;
14903;SDS011;7543;53.148;8.234;2024-02-21T01:30:05;18.27;;;9.80;;
14903;SDS011;7543;53.148;8.234;2024-02-21T01:32:34;21.10;;;8.57;;
14903;SDS011;7543;53.148;8.234;2024-02-21T01:35:02;19.73;;;8.93;;
14903;SDS011;7543;53.148;8.234;2024-02-21T01:37:31;16.73;;;9.67;;
14903;SDS011;7543;53.148;8.234;2024-02-21T01:40:00;19.73;;;9.33;;
14903;SDS011;7543;53.148;8.234;2024-02-21T01:42:29;17.53;;;9.10;;
14903;SDS011;7543;53.148;8.234;2024-02-21T01:44:58;22.53;;;9.83;;
14903;SDS011;7543;53.148;8.234;2024-02-21T01:47:26;16.90;;;9.20;;
14903;SDS011;7543;53.148;8.234;2024-02-21T01:49:54;19.03;;;9.03;;
14903;SDS011;7543;53.148;8.234;2024-02-21T01:52:24;23.33;;;9.33;;
14903;SDS011;7543;53.148;8.234;2024-02-21T01:54:52;19.43;;;8.53;;
14903;SDS011;7543;53.148;8.234;2024-02-21T01:57:22;19.63;;;9.07;;
14903;SDS011;7543;53.148;8.234;2024-02-21T01:59:51;20.83;;;8.17;;
14903;SDS011;7543;53.148;8.234;2024-02-21T02:02:19;15.90;;;7.90;;
14903;SDS011;7543;53.148;8.234;2024-02-21T02:04:48;20.40;;;8.10;;
14903;SDS011;7543;53.148;8.234;2024-02-21T02:07:17;18.40;;;7.97;;
14903;SDS011;7543;53.148;8.234;2024-02-21T02:09:45;20.57;;;8.97;;
14903;SDS011;7543;53.148;8.234;2024-02-21T02:12:13;15.90;;;7.63;;
14903;SDS011;7543;53.148;8.234;2024-02-21T02:14:43;15.70;;;8.93;;
14903;SDS011;7543;53.148;8.234;2024-02-21T02:17:11;17.43;;;8.70;;
14903;SDS011;7543;53.148;8.234;2024-02-21T02:19:40;14.43;;;8.07;;
14903;SDS011;7543;53.148;8.234;2024-02-21T02:22:09;14.37;;;8.07;;
14903;SDS011;7543;53.148;8.234;2024-02-21T02:24:43;18.83;;;8.70;;
14903;SDS011;7543;53.148;8.234;2024-02-21T02:27:11;19.43;;;8.17;;
14903;SDS011;7543;53.148;8.234;2024-02-21T02:29:39;16.27;;;7.90;;
14903;SDS011;7543;53.148;8.234;2024-02-21T02:32:08;14.47;;;7.63;;
14903;SDS011;7543;53.148;8.234;2024-02-21T02:34:36;16.73;;;7.60;;
14903;SDS011;7543;53.148;8.234;2024-02-21T02:37:04;13.93;;;7.70;;
14903;SDS011;7543;53.148;8.234;2024-02-21T02:39:33;15.80;;;8.13;;
14903;SDS011;7543;53.148;8.234;2024-02-21T02:42:03;22.37;;;8.47;;
14903;SDS011;7543;53.148;8.234;2024-02-21T02:44:31;15.73;;;7.27;;
14903;SDS011;7543;53.148;8.234;2024-02-21T02:47:00;21.87;;;8.37;;
14903;SDS011;7543;53.148;8.234;2024-02-21T02:49:28;22.83;;;8.47;;
14903;SDS011;7543;53.148;8.234;2024-02-21T02:51:56;17.53;;;8.20;;
14903;SDS011;7543;53.148;8.234;2024-02-21T02:54:24;18.07;;;7.87;;
14903;SDS011;7543;53.148;8.234;2024-02-21T02:56:53;17.97;;;7.87;;
14903;SDS011;7543;53.148;8.234;2024-02-21T02:59:22;14.67;;;7.30;;
14903;SDS011;7543;53.148;8.234;2024-02-21T03:01:51;16.73;;;8.77;;
14903;SDS011;7543;53.148;8.234;2024-02-21T03:04:19;18.37;;;8.33;;
14903;SDS011;7543;53.148;8.234;2024-02-21T03:06:47;16.93;;;8.33;;
14903;SDS011;7543;53.148;8.234;2024-02-21T03:09:15;17.40;;;7.90;;
14903;SDS011;7543;53.148;8.234;2024-02-21T03:11:44;15.10;;;8.13;;
14903;SDS011;7543;53.148;8.234;2024-02-21T03:14:12;14.27;;;8.03;;
14903;SDS011;7543;53.148;8.234;2024-02-21T03:16:42;20.37;;;8.57;;
14903;SDS011;7543;53.148;8.234;2024-02-21T03:19:10;21.20;;;7.80;;
14903;SDS011;7543;53.148;8.234;2024-02-21T03:21:38;21.00;;;8.77;;
14903;SDS011;7543;53.148;8.234;2024-02-21T03:24:07;16.90;;;8.63;;
14903;SDS011;7543;53.148;8.234;2024-02-21T03:26:35;18.07;;;8.33;;
14903;SDS011;7543;53.148;8.234;2024-02-21T03:29:03;16.87;;;8.20;;
14903;SDS011;7543;53.148;8.234;2024-02-21T03:31:31;21.50;;;8.90;;
14903;SDS011;7543;53.148;8.234;2024-02-21T03:34:01;22.47;;;8.50;;
14903;SDS011;7543;53.148;8.234;2024-02-21T03:36:29;19.00;;;8.23;;
14903;SDS011;7543;53.148;8.234;2024-02-21T03:38:58;20.03;;;9.07;;
14903;SDS011;7543;53.148;8.234;2024-02-21T03:41:26;18.57;;;8.03;;
14903;SDS011;7543;53.148;8.234;2024-02-21T03:43:54;20.67;;;8.07;;
14903;SDS011;7543;53.148;8.234;2024-02-21T03:46:23;14.20;;;8.60;;
14903;SDS011;7543;53.148;8.234;2024-02-21T03:48:52;16.63;;;8.00;;
14903;SDS011;7543;53.148;8.234;2024-02-21T03:51:22;19.23;;;8.27;;
14903;SDS011;7543;53.148;8.234;2024-02-21T03:53:50;16.77;;;8.40;;
14903;SDS011;7543;53.148;8.234;2024-02-21T03:56:19;15.40;;;8.17;;
14903;SDS011;7543;53.148;8.234;2024-02-21T03:58:47;12.50;;;7.60;;
14903;SDS011;7543;53.148;8.234;2024-02-21T04:01:15;14.47;;;8.17;;
14903;SDS011;7543;53.148;8.234;2024-02-21T04:03:44;15.50;;;7.90;;
14903;SDS011;7543;53.148;8.234;2024-02-21T04:06:12;13.50;;;7.47;;
14903;SDS011;7543;53.148;8.234;2024-02-21T04:08:42;10.83;;;6.60;;
14903;SDS011;7543;53.148;8.234;2024-02-21T04:11:10;15.17;;;7.23;;
14903;SDS011;7543;53.148;8.234;2024-02-21T04:13:38;11.53;;;6.80;;
14903;SDS011;7543;53.148;8.234;2024-02-21T04:16:07;13.33;;;6.80;;
14903;SDS011;7543;53.148;8.234;2024-02-21T04:18:35;11.07;;;6.27;;
14903;SDS011;7543;53.148;8.234;2024-02-21T04:21:03;9.93;;;6.33;;
14903;SDS011;7543;53.148;8.234;2024-02-21T04:23:32;11.97;;;6.47;;
14903;SDS011;7543;53.148;8.234;2024-02-21T04:26:02;12.90;;;6.03;;
14903;SDS011;7543;53.148;8.234;2024-02-21T04:28:30;15.53;;;7.43;;
14903;SDS011;7543;53.148;8.234;2024-02-21T04:30:59;11.67;;;6.27;;
14903;SDS011;7543;53.148;8.234;2024-02-21T04:33:27;14.67;;;6.30;;
14903;SDS011;7543;53.148;8.234;2024-02-21T04:35:55;11.50;;;5.97;;
14903;SDS011;7543;53.148;8.234;2024-02-21T04:38:26;9.13;;;5.50;;
14903;SDS011;7543;53.148;8.234;2024-02-21T04:40:55;12.87;;;6.27;;
14903;SDS011;7543;53.148;8.234;2024-02-21T04:43:26;12.27;;;6.13;;
14903;SDS011;7543;53.148;8.234;2024-02-21T04:45:54;11.10;;;5.67;;
14903;SDS011;7543;53.148;8.234;2024-02-21T04:48:22;9.60;;;5.50;;
14903;SDS011;7543;53.148;8.234;2024-02-21T04:50:51;11.40;;;5.73;;
14903;SDS011;7543;53.148;8.234;2024-02-21T04:53:19;10.27;;;6.00;;
14903;SDS011;7543;53.148;8.234;2024-02-21T04:55:47;7.43;;;5.00;;
14903;SDS011;7543;53.148;8.234;2024-02-21T04:58:15;9.40;;;5.23;;
14903;SDS011;7543;53.148;8.234;2024-02-21T05:00:45;8.00;;;5.77;;
14903;SDS011;7543;53.148;8.234;2024-02-21T05:03:13;7.00;;;4.67;;
14903;SDS011;7543;53.148;8.234;2024-02-21T05:05:42;7.67;;;4.97;;
14903;SDS011;7543;53.148;8.234;2024-02-21T05:08:10;9.30;;;5.70;;
14903;SDS011;7543;53.148;8.234;2024-02-21T05:10:38;5.40;;;4.03;;
14903;SDS011;7543;53.148;8.234;2024-02-21T05:13:07;7.70;;;5.10;;
14903;SDS011;7543;53.148;8.234;2024-02-21T05:15:35;7.80;;;5.33;;
14903;SDS011;7543;53.148;8.234;2024-02-21T05:18:18;7.63;;;5.10;;
14903;SDS011;7543;53.148;8.234;2024-02-21T05:20:47;6.83;;;4.63;;
14903;SDS011;7543;53.148;8.234;2024-02-21T05:23:15;6.73;;;4.33;;
14903;SDS011;7543;53.148;8.234;2024-02-21T05:25:44;7.37;;;4.80;;
14903;SDS011;7543;53.148;8.234;2024-02-21T05:28:12;7.10;;;4.43;;
14903;SDS011;7543;53.148;8.234;2024-02-21T05:30:40;8.27;;;4.30;;
14903;SDS011;7543;53.148;8.234;2024-02-21T05:33:11;7.23;;;4.33;;
14903;SDS011;7543;53.148;8.234;2024-02-21T05:35:39;6.10;;;3.83;;
14903;SDS011;7543;53.148;8.234;2024-02-21T05:38:07;6.33;;;4.13;;
14903;SDS011;7543;53.148;8.234;2024-02-21T05:40:38;7.53;;;4.20;;
14903;SDS011;7543;53.148;8.234;2024-02-21T05:43:06;5.63;;;3.60;;
14903;SDS011;7543;53.148;8.234;2024-02-21T05:45:35;6.30;;;4.00;;
14903;SDS011;7543;53.148;8.234;2024-02-21T05:48:04;5.73;;;3.67;;
14903;SDS011;7543;53.148;8.234;2024-02-21T05:50:34;4.40;;;3.40;;
14903;SDS011;7543;53.148;8.234;2024-02-21T05:53:02;4.90;;;3.40;;
14903;SDS011;7543;53.148;8.234;2024-02-21T05:55:31;5.20;;;3.43;;
14903;SDS011;7543;53.148;8.234;2024-02-21T05:57:59;8.53;;;3.87;;
14903;SDS011;7543;53.148;8.234;2024-02-21T06:00:27;5.57;;;3.50;;
14903;SDS011;7543;53.148;8.234;2024-02-21T06:02:56;7.23;;;3.63;;
14903;SDS011;7543;53.148;8.234;2024-02-21T06:05:24;6.17;;;3.60;;
14903;SDS011;7543;53.148;8.234;2024-02-21T06:07:54;5.13;;;3.73;;
14903;SDS011;7543;53.148;8.234;2024-02-21T06:10:23;9.40;;;3.40;;
14903;SDS011;7543;53.148;8.234;2024-02-21T06:12:51;6.60;;;3.67;;
14903;SDS011;7543;53.148;8.234;2024-02-21T06:15:19;4.97;;;3.30;;
14903;SDS011;7543;53.148;8.234;2024-02-21T06:17:48;5.30;;;3.53;;
14903;SDS011;7543;53.148;8.234;2024-02-21T06:20:16;5.03;;;3.57;;
14903;SDS011;7543;53.148;8.234;2024-02-21T06:22:44;7.20;;;4.10;;
14903;SDS011;7543;53.148;8.234;2024-02-21T06:25:14;8.40;;;4.13;;
14903;SDS011;7543;53.148;8.234;2024-02-21T06:27:43;6.10;;;3.93;;
14903;SDS011;7543;53.148;8.234;2024-02-21T06:30:12;6.40;;;3.73;;
14903;SDS011;7543;53.148;8.234;2024-02-21T06:32:40;7.77;;;4.30;;
14903;SDS011;7543;53.148;8.234;2024-02-21T06:35:09;8.27;;;4.20;;
14903;SDS011;7543;53.148;8.234;2024-02-21T06:37:37;7.20;;;4.20;;
14903;SDS011;7543;53.148;8.234;2024-02-21T06:40:06;7.90;;;4.50;;
14903;SDS011;7543;53.148;8.234;2024-02-21T06:42:37;7.07;;;3.87;;
14903;SDS011;7543;53.148;8.234;2024-02-21T06:45:05;6.97;;;4.63;;
14903;SDS011;7543;53.148;8.234;2024-02-21T06:47:34;9.77;;;5.33;;
14903;SDS011;7543;53.148;8.234;2024-02-21T06:50:02;7.73;;;4.57;;
14903;SDS011;7543;53.148;8.234;2024-02-21T06:52:31;8.83;;;5.07;;
14903;SDS011;7543;53.148;8.234;2024-02-21T06:54:59;7.57;;;5.17;;
14903;SDS011;7543;53.148;8.234;2024-02-21T06:57:28;9.73;;;4.93;;
14903;SDS011;7543;53.148;8.234;2024-02-21T06:59:58;9.50;;;5.10;;
14903;SDS011;7543;53.148;8.234;2024-02-21T07:02:26;11.80;;;5.30;;
14903;SDS011;7543;53.148;8.234;2024-02-21T07:04:54;8.67;;;5.57;;
14903;SDS011;7543;53.148;8.234;2024-02-21T07:07:23;10.17;;;5.30;;
14903;SDS011;7543;53.148;8.234;2024-02-21T07:09:51;12.93;;;6.10;;
14903;SDS011;7543;53.148;8.234;2024-02-21T07:12:20;11.30;;;6.13;;
14903;SDS011;7543;53.148;8.234;2024-02-21T07:14:48;12.13;;;6.20;;
14903;SDS011;7543;53.148;8.234;2024-02-21T07:17:18;11.80;;;6.27;;
14903;SDS011;7543;53.148;8.234;2024-02-21T07:19:46;8.90;;;5.50;;
14903;SDS011;7543;53.148;8.234;2024-02-21T07:22:15;15.23;;;6.93;;
14903;SDS011;7543;53.148;8.234;2024-02-21T07:24:43;9.80;;;5.67;;
14903;SDS011;7543;53.148;8.234;2024-02-21T07:27:13;10.13;;;6.20;;
14903;SDS011;7543;53.148;8.234;2024-02-21T07:29:43;13.47;;;6.27;;
14903;SDS011;7543;53.148;8.234;2024-02-21T07:32:14;13.20;;;6.10;;
14903;SDS011;7543;53.148;8.234;2024-02-21T07:34:43;10.40;;;6.43;;
14903;SDS011;7543;53.148;8.234;2024-02-21T07:37:12;11.37;;;6.77;;
14903;SDS011;7543;53.148;8.234;2024-02-21T07:39:40;13.77;;;7.23;;
14903;SDS011;7543;53.148;8.234;2024-02-21T07:42:09;16.83;;;8.30;;
14903;SDS011;7543;53.148;8.234;2024-02-21T07:44:37;12.13;;;7.60;;
14903;SDS011;7543;53.148;8.234;2024-02-21T07:47:05;19.10;;;7.57;;
14903;SDS011;7543;53.148;8.234;2024-02-21T07:49:40;18.17;;;7.73;;
14903;SDS011;7543;53.148;8.234;2024-02-21T07:52:10;12.73;;;7.37;;
14903;SDS011;7543;53.148;8.234;2024-02-21T07:54:38;16.73;;;7.70;;
14903;SDS011;7543;53.148;8.234;2024-02-21T07:57:07;14.10;;;6.63;;
14903;SDS011;7543;53.148;8.234;2024-02-21T07:59:35;12.60;;;7.40;;
14903;SDS011;7543;53.148;8.234;2024-02-21T08:02:03;14.83;;;7.20;;
14903;SDS011;7543;53.148;8.234;2024-02-21T08:04:33;15.67;;;7.60;;
14903;SDS011;7543;53.148;8.234;2024-02-21T08:07:01;19.73;;;7.97;;
14903;SDS011;7543;53.148;8.234;2024-02-21T08:09:32;17.50;;;7.87;;
14903;SDS011;7543;53.148;8.234;2024-02-21T08:12:01;14.47;;;7.60;;
14903;SDS011;7543;53.148;8.234;2024-02-21T08:14:29;19.20;;;8.10;;
14903;SDS011;7543;53.148;8.234;2024-02-21T08:16:58;14.90;;;8.10;;
14903;SDS011;7543;53.148;8.234;2024-02-21T08:19:26;15.80;;;7.70;;
14903;SDS011;7543;53.148;8.234;2024-02-21T08:21:54;22.10;;;8.37;;
14903;SDS011;7543;53.148;8.234;2024-02-21T08:24:23;15.90;;;8.80;;
14903;SDS011;7543;53.148;8.234;2024-02-21T08:26:52;14.90;;;8.10;;
14903;SDS011;7543;53.148;8.234;2024-02-21T08:29:21;13.83;;;7.03;;
14903;SDS011;7543;53.148;8.234;2024-02-21T08:31:49;17.73;;;7.77;;
14903;SDS011;7543;53.148;8.234;2024-02-21T08:34:17;17.63;;;8.80;;
14903;SDS011;7543;53.148;8.234;2024-02-21T08:36:46;20.77;;;8.67;;
14903;SDS011;7543;53.148;8.234;2024-02-21T08:39:14;19.10;;;8.47;;
14903;SDS011;7543;53.148;8.234;2024-02-21T08:41:43;15.10;;;8.23;;
14903;SDS011;7543;53.148;8.234;2024-02-21T08:44:13;16.33;;;8.13;;
14903;SDS011;7543;53.148;8.234;2024-02-21T08:46:41;18.67;;;8.63;;
14903;SDS011;7543;53.148;8.234;2024-02-21T08:49:09;14.67;;;8.07;;
14903;SDS011;7543;53.148;8.234;2024-02-21T08:51:38;15.50;;;8.07;;
14903;SDS011;7543;53.148;8.234;2024-02-21T08:54:06;18.27;;;9.03;;
14903;SDS011;7543;53.148;8.234;2024-02-21T08:56:35;19.47;;;8.97;;
14903;SDS011;7543;53.148;8.234;2024-02-21T08:59:03;15.23;;;7.63;;
14903;SDS011;7543;53.148;8.234;2024-02-21T09:01:33;16.67;;;7.97;;
14903;SDS011;7543;53.148;8.234;2024-02-21T09:04:02;18.07;;;7.50;;
14903;SDS011;7543;53.148;8.234;2024-02-21T09:06:30;18.53;;;8.63;;
14903;SDS011;7543;53.148;8.234;2024-02-21T09:09:00;16.27;;;7.57;;
14903;SDS011;7543;53.148;8.234;2024-02-21T09:11:28;17.10;;;8.23;;
14903;SDS011;7543;53.148;8.234;2024-02-21T09:13:57;15.03;;;7.67;;
14903;SDS011;7543;53.148;8.234;2024-02-21T09:16:25;17.77;;;8.30;;
14903;SDS011;7543;53.148;8.234;2024-02-21T09:18:55;21.03;;;8.67;;
14903;SDS011;7543;53.148;8.234;2024-02-21T09:21:24;13.00;;;7.50;;
14903;SDS011;7543;53.148;8.234;2024-02-21T09:23:52;14.97;;;8.30;;
14903;SDS011;7543;53.148;8.234;2024-02-21T09:26:20;19.47;;;8.70;;
14903;SDS011;7543;53.148;8.234;2024-02-21T09:28:49;18.50;;;8.87;;
14903;SDS011;7543;53.148;8.234;2024-02-21T09:31:18;19.07;;;9.40;;
14903;SDS011;7543;53.148;8.234;2024-02-21T09:33:46;18.77;;;9.00;;
14903;SDS011;7543;53.148;8.234;2024-02-21T09:36:16;19.13;;;9.27;;
14903;SDS011;7543;53.148;8.234;2024-02-21T09:38:44;17.13;;;9.73;;
14903;SDS011;7543;53.148;8.234;2024-02-21T09:41:14;18.17;;;8.83;;
14903;SDS011;7543;53.148;8.234;2024-02-21T09:43:44;19.23;;;9.60;;
14903;SDS011;7543;53.148;8.234;2024-02-21T09:46:13;15.73;;;9.20;;
14903;SDS011;7543;53.148;8.234;2024-02-21T09:48:49;16.00;;;9.03;;
14903;SDS011;7543;53.148;8.234;2024-02-21T09:51:28;15.93;;;8.97;;
14903;SDS011;7543;53.148;8.234;2024-02-21T09:53:59;19.57;;;8.63;;
14903;SDS011;7543;53.148;8.234;2024-02-21T09:56:27;15.10;;;8.73;;
14903;SDS011;7543;53.148;8.234;2024-02-21T09:58:55;16.07;;;8.47;;
14903;SDS011;7543;53.148;8.234;2024-02-21T10:01:25;17.67;;;8.70;;
14903;SDS011;7543;53.148;8.234;2024-02-21T10:03:53;15.60;;;8.53;;
14903;SDS011;7543;53.148;8.234;2024-02-21T10:06:21;14.53;;;8.57;;
14903;SDS011;7543;53.148;8.234;2024-02-21T10:08:55;13.37;;;8.10;;
14903;SDS011;7543;53.148;8.234;2024-02-21T10:11:23;15.33;;;8.00;;
14903;SDS011;7543;53.148;8.234;2024-02-21T10:14:02;12.33;;;7.23;;
14903;SDS011;7543;53.148;8.234;2024-02-21T10:16:30;12.47;;;7.50;;
14903;SDS011;7543;53.148;8.234;2024-02-21T10:19:00;18.70;;;8.20;;
14903;SDS011;7543;53.148;8.234;2024-02-21T10:21:29;15.43;;;7.60;;
14903;SDS011;7543;53.148;8.234;2024-02-21T10:23:58;17.07;;;8.43;;
14903;SDS011;7543;53.148;8.234;2024-02-21T10:26:27;12.57;;;7.90;;
14903;SDS011;7543;53.148;8.234;2024-02-21T10:28:55;16.33;;;8.07;;
14903;SDS011;7543;53.148;8.234;2024-02-21T10:31:24;14.90;;;8.27;;
14903;SDS011;7543;53.148;8.234;2024-02-21T10:33:53;15.00;;;7.73;;
14903;SDS011;7543;53.148;8.234;2024-02-21T10:36:22;16.90;;;8.07;;
14903;SDS011;7543;53.148;8.234;2024-02-21T10:38:51;12.57;;;7.47;;
14903;SDS011;7543;53.148;8.234;2024-02-21T10:41:21;14.77;;;7.43;;
14903;SDS011;7543;53.148;8.234;2024-02-21T10:43:50;14.33;;;8.30;;
14903;SDS011;7543;53.148;8.234;2024-02-21T10:46:20;14.27;;;7.57;;
14903;SDS011;7543;53.148;8.234;2024-02-21T10:48:52;13.57;;;7.50;;
14903;SDS011;7543;53.148;8.234;2024-02-21T10:51:28;16.87;;;8.33;;
14903;SDS011;7543;53.148;8.234;2024-02-21T10:54:01;15.17;;;7.03;;
14903;SDS011;7543;53.148;8.234;2024-02-21T10:56:41;13.47;;;7.40;;
14903;SDS011;7543;53.148;8.234;2024-02-21T10:59:09;13.23;;;8.00;;
14903;SDS011;7543;53.148;8.234;2024-02-21T11:01:39;16.13;;;7.70;;
14903;SDS011;7543;53.148;8.234;2024-02-21T11:04:08;13.93;;;7.60;;
14903;SDS011;7543;53.148;8.234;2024-02-21T11:06:38;11.80;;;7.33;;
14903;SDS011;7543;53.148;8.234;2024-02-21T11:09:07;14.60;;;7.20;;
14903;SDS011;7543;53.148;8.234;2024-02-21T11:11:37;13.83;;;7.60;;
14903;SDS011;7543;53.148;8.234;2024-02-21T11:14:08;14.40;;;8.13;;
14903;SDS011;7543;53.148;8.234;2024-02-21T11:16:37;15.07;;;7.27;;
14903;SDS011;7543;53.148;8.234;2024-02-21T11:19:07;14.17;;;6.80;;
14903;SDS011;7543;53.148;8.234;2024-02-21T11:21:36;15.53;;;6.87;;
14903;SDS011;7543;53.148;8.234;2024-02-21T11:24:05;11.93;;;7.10;;
14903;SDS011;7543;53.148;8.234;2024-02-21T11:26:36;13.27;;;7.03;;
14903;SDS011;7543;53.148;8.234;2024-02-21T11:29:05;15.63;;;6.93;;
14903;SDS011;7543;53.148;8.234;2024-02-21T11:31:40;20.63;;;7.57;;
14903;SDS011;7543;53.148;8.234;2024-02-21T11:34:09;11.97;;;6.60;;
14903;SDS011;7543;53.148;8.234;2024-02-21T11:36:46;13.03;;;6.40;;
14903;SDS011;7543;53.148;8.234;2024-02-21T11:39:21;12.43;;;5.87;;
14903;SDS011;7543;53.148;8.234;2024-02-21T11:42:00;12.43;;;6.43;;
14903;SDS011;7543;53.148;8.234;2024-02-21T11:44:30;11.23;;;6.07;;
14903;SDS011;7543;53.148;8.234;2024-02-21T11:47:00;10.57;;;6.17;;
14903;SDS011;7543;53.148;8.234;2024-02-21T11:49:30;13.33;;;6.67;;
14903;SDS011;7543;53.148;8.234;2024-02-21T11:51:58;14.10;;;6.80;;
14903;SDS011;7543;53.148;8.234;2024-02-21T11:54:27;14.43;;;6.40;;
14903;SDS011;7543;53.148;8.234;2024-02-21T11:56:56;12.40;;;6.37;;
14903;SDS011;7543;53.148;8.234;2024-02-21T11:59:24;10.07;;;5.70;;
14903;SDS011;7543;53.148;8.234;2024-02-21T12:01:53;10.60;;;5.37;;
14903;SDS011;7543;53.148;8.234;2024-02-21T12:04:22;11.07;;;6.27;;
14903;SDS011;7543;53.148;8.234;2024-02-21T12:06:52;7.80;;;4.87;;
14903;SDS011;7543;53.148;8.234;2024-02-21T12:09:22;10.73;;;5.67;;
14903;SDS011;7543;53.148;8.234;2024-02-21T12:11:57;10.67;;;4.67;;
14903;SDS011;7543;53.148;8.234;2024-02-21T12:14:26;8.87;;;4.20;;
14903;SDS011;7543;53.148;8.234;2024-02-21T12:16:55;9.70;;;4.70;;
14903;SDS011;7543;53.148;8.234;2024-02-21T12:19:25;8.93;;;4.47;;
14903;SDS011;7543;53.148;8.234;2024-02-21T12:21:53;8.23;;;4.53;;
14903;SDS011;7543;53.148;8.234;2024-02-21T12:24:24;9.37;;;4.80;;
14903;SDS011;7543;53.148;8.234;2024-02-21T12:26:54;8.57;;;4.50;;
14903;SDS011;7543;53.148;8.234;2024-02-21T12:29:23;12.67;;;4.47;;
14903;SDS011;7543;53.148;8.234;2024-02-21T12:31:52;6.57;;;4.10;;
14903;SDS011;7543;53.148;8.234;2024-02-21T12:34:23;6.90;;;3.73;;
14903;SDS011;7543;53.148;8.234;2024-02-21T12:36:55;9.70;;;4.00;;
14903;SDS011;7543;53.148;8.234;2024-02-21T12:39:23;11.30;;;4.30;;
14903;SDS011;7543;53.148;8.234;2024-02-21T12:41:52;12.17;;;4.23;;
14903;SDS011;7543;53.148;8.234;2024-02-21T12:44:20;8.03;;;3.43;;
14903;SDS011;7543;53.148;8.234;2024-02-21T12:46:49;9.97;;;4.10;;
14903;SDS011;7543;53.148;8.234;2024-02-21T12:49:20;6.97;;;3.60;;
14903;SDS011;7543;53.148;8.234;2024-02-21T12:51:48;6.67;;;3.63;;
14903;SDS011;7543;53.148;8.234;2024-02-21T12:54:18;5.67;;;3.60;;
14903;SDS011;7543;53.148;8.234;2024-02-21T12:56:46;6.13;;;3.60;;
14903;SDS011;7543;53.148;8.234;2024-02-21T12:59:15;6.53;;;3.50;;
14903;SDS011;7543;53.148;8.234;2024-02-21T13:01:43;5.00;;;3.40;;
14903;SDS011;7543;53.148;8.234;2024-02-21T13:04:12;7.13;;;3.60;;
14903;SDS011;7543;53.148;8.234;2024-02-21T13:06:40;10.67;;;3.53;;
14903;SDS011;7543;53.148;8.234;2024-02-21T13:09:08;8.83;;;3.90;;
14903;SDS011;7543;53.148;8.234;2024-02-21T13:11:39;9.80;;;4.10;;
14903;SDS011;7543;53.148;8.234;2024-02-21T13:14:08;6.47;;;3.67;;
14903;SDS011;7543;53.148;8.234;2024-02-21T13:16:36;9.00;;;3.87;;
14903;SDS011;7543;53.148;8.234;2024-02-21T13:19:07;5.47;;;3.60;;
14903;SDS011;7543;53.148;8.234;2024-02-21T13:21:36;6.77;;;3.63;;
14903;SDS011;7543;53.148;8.234;2024-02-21T13:24:04;8.70;;;3.53;;
14903;SDS011;7543;53.148;8.234;2024-02-21T13:26:33;6.10;;;3.33;;
14903;SDS011;7543;53.148;8.234;2024-02-21T13:29:02;8.47;;;3.63;;
14903;SDS011;7543;53.148;8.234;2024-02-21T13:31:31;6.00;;;3.70;;
14903;SDS011;7543;53.148;8.234;2024-02-21T13:33:59;9.23;;;3.57;;
14903;SDS011;7543;53.148;8.234;2024-02-21T13:36:27;9.23;;;3.47;;
14903;SDS011;7543;53.148;8.234;2024-02-21T13:38:56;6.93;;;3.77;;
14903;SDS011;7543;53.148;8.234;2024-02-21T13:41:24;7.13;;;3.73;;
14903;SDS011;7543;53.148;8.234;2024-02-21T13:43:53;7.07;;;3.40;;
14903;SDS011;7543;53.148;8.234;2024-02-21T13:46:23;6.97;;;3.60;;
14903;SDS011;7543;53.148;8.234;2024-02-21T13:48:51;7.10;;;3.60;;
14903;SDS011;7543;53.148;8.234;2024-02-21T13:51:20;7.03;;;3.80;;
14903;SDS011;7543;53.148;8.234;2024-02-21T13:53:49;4.67;;;2.97;;
14903;SDS011;7543;53.148;8.234;2024-02-21T13:56:17;5.80;;;3.13;;
14903;SDS011;7543;53.148;8.234;2024-02-21T13:58:45;6.73;;;3.20;;
14903;SDS011;7543;53.148;8.234;2024-02-21T14:01:14;7.07;;;3.20;;
14903;SDS011;7543;53.148;8.234;2024-02-21T14:03:43;6.37;;;3.60;;
14903;SDS011;7543;53.148;8.234;2024-02-21T14:06:12;4.83;;;3.30;;
14903;SDS011;7543;53.148;8.234;2024-02-21T14:08:40;5.93;;;3.27;;
14903;SDS011;7543;53.148;8.234;2024-02-21T14:11:09;10.87;;;4.07;;
14903;SDS011;7543;53.148;8.234;2024-02-21T14:13:37;6.30;;;3.83;;
14903;SDS011;7543;53.148;8.234;2024-02-21T14:16:08;7.90;;;4.60;;
14903;SDS011;7543;53.148;8.234;2024-02-21T14:18:39;7.80;;;5.23;;
14903;SDS011;7543;53.148;8.234;2024-02-21T14:21:10;9.90;;;5.13;;
14903;SDS011;7543;53.148;8.234;2024-02-21T14:23:38;10.40;;;5.70;;
14903;SDS011;7543;53.148;8.234;2024-02-21T14:26:07;10.43;;;6.47;;
14903;SDS011;7543;53.148;8.234;2024-02-21T14:28:35;8.67;;;6.03;;
14903;SDS011;7543;53.148;8.234;2024-02-21T14:31:03;9.80;;;6.20;;
14903;SDS011;7543;53.148;8.234;2024-02-21T14:33:34;8.53;;;5.70;;
14903;SDS011;7543;53.148;8.234;2024-02-21T14:36:02;10.70;;;6.47;;
14903;SDS011;7543;53.148;8.234;2024-02-21T14:38:33;8.20;;;5.97;;
14903;SDS011;7543;53.148;8.234;2024-02-21T14:41:02;10.87;;;5.90;;
14903;SDS011;7543;53.148;8.234;2024-02-21T14:43:30;11.17;;;5.90;;
14903;SDS011;7543;53.148;8.234;2024-02-21T14:45:58;8.20;;;5.77;;
14903;SDS011;7543;53.148;8.234;2024-02-21T14:48:27;7.73;;;5.73;;
14903;SDS011;7543;53.148;8.234;2024-02-21T14:50:55;7.20;;;5.00;;
14903;SDS011;7543;53.148;8.234;2024-02-21T14:53:24;7.73;;;5.47;;
14903;SDS011;7543;53.148;8.234;2024-02-21T14:55:53;7.87;;;5.60;;
14903;SDS011;7543;53.148;8.234;2024-02-21T14:58:22;7.80;;;5.30;;
14903;SDS011;7543;53.148;8.234;2024-02-21T15:00:50;8.33;;;5.73;;